Terminal Aerodrome Forecast
Issued by NWS

Home | Current Version | Previous Version | Text Only | Print | Product List | Glossary On
Versions: 1 2 3 4 5 6 7 8 9 10 11 12 13 14
000
FTAK31 PAJN 200500
TAFAYA
TAF
PAYA 200525Z 2006/2106 00000KT P6SM OVC050
     FM200900 00000KT 4SM BR BCFG BKN005 OVC050
     FM201300 00000KT 5SM BR SCT005 BKN050
     FM201800 27005KT P6SM SCT050
     FM210300 00000KT P6SM SCT050
      AMD LTD TO CLD VIS AND WIND TIL 201000=

USA.gov is the U.S. government's official web portal to all federal, state and local government web resources and services.